sensor_id;sensor_type;location;lat;lon;timestamp;temperature;humidity
1948;DHT22;974;52.400;9.818;2023-06-14T00:01:02;16.60;72.60
1948;DHT22;974;52.400;9.818;2023-06-14T00:03:31;16.50;72.70
1948;DHT22;974;52.400;9.818;2023-06-14T00:05:57;16.40;72.80
1948;DHT22;974;52.400;9.818;2023-06-14T00:08:22;16.40;73.00
1948;DHT22;974;52.400;9.818;2023-06-14T00:10:50;16.40;73.40
1948;DHT22;974;52.400;9.818;2023-06-14T00:13:15;16.40;73.30
1948;DHT22;974;52.400;9.818;2023-06-14T00:15:41;16.40;73.30
1948;DHT22;974;52.400;9.818;2023-06-14T00:18:08;16.40;73.50
1948;DHT22;974;52.400;9.818;2023-06-14T00:20:36;16.40;73.70
1948;DHT22;974;52.400;9.818;2023-06-14T00:23:02;16.30;73.90
1948;DHT22;974;52.400;9.818;2023-06-14T00:25:28;16.20;74.00
1948;DHT22;974;52.400;9.818;2023-06-14T00:27:57;16.20;74.20
1948;DHT22;974;52.400;9.818;2023-06-14T00:30:23;16.30;74.40
1948;DHT22;974;52.400;9.818;2023-06-14T00:32:49;16.20;75.00
1948;DHT22;974;52.400;9.818;2023-06-14T00:35:15;16.10;74.90
1948;DHT22;974;52.400;9.818;2023-06-14T00:37:40;16.10;75.60
1948;DHT22;974;52.400;9.818;2023-06-14T00:40:07;16.10;75.00
1948;DHT22;974;52.400;9.818;2023-06-14T00:42:33;16.20;75.60
1948;DHT22;974;52.400;9.818;2023-06-14T00:44:59;16.10;75.30
1948;DHT22;974;52.400;9.818;2023-06-14T00:47:24;16.10;75.60
1948;DHT22;974;52.400;9.818;2023-06-14T00:49:50;16.00;75.70
1948;DHT22;974;52.400;9.818;2023-06-14T00:52:16;16.00;76.20
1948;DHT22;974;52.400;9.818;2023-06-14T00:54:43;15.90;76.50
1948;DHT22;974;52.400;9.818;2023-06-14T00:57:09;15.90;76.70
1948;DHT22;974;52.400;9.818;2023-06-14T00:59:41;15.90;77.30
1948;DHT22;974;52.400;9.818;2023-06-14T01:02:07;15.80;77.40
1948;DHT22;974;52.400;9.818;2023-06-14T01:04:33;15.70;77.50
1948;DHT22;974;52.400;9.818;2023-06-14T01:07:15;15.70;78.00
1948;DHT22;974;52.400;9.818;2023-06-14T01:09:58;15.70;78.10
1948;DHT22;974;52.400;9.818;2023-06-14T01:15:08;15.60;78.60
1948;DHT22;974;52.400;9.818;2023-06-14T01:17:35;15.60;78.90
1948;DHT22;974;52.400;9.818;2023-06-14T01:20:04;15.60;79.30
1948;DHT22;974;52.400;9.818;2023-06-14T01:22:35;15.50;79.50
1948;DHT22;974;52.400;9.818;2023-06-14T01:25:01;15.50;79.60
1948;DHT22;974;52.400;9.818;2023-06-14T01:27:26;15.40;80.00
1948;DHT22;974;52.400;9.818;2023-06-14T01:29:55;15.30;80.30
1948;DHT22;974;52.400;9.818;2023-06-14T01:32:26;15.30;80.30
1948;DHT22;974;52.400;9.818;2023-06-14T01:34:53;15.30;80.40
1948;DHT22;974;52.400;9.818;2023-06-14T01:37:20;15.30;80.80
1948;DHT22;974;52.400;9.818;2023-06-14T01:39:47;15.30;80.90
1948;DHT22;974;52.400;9.818;2023-06-14T01:42:14;15.20;81.20
1948;DHT22;974;52.400;9.818;2023-06-14T01:44:42;15.10;81.60
1948;DHT22;974;52.400;9.818;2023-06-14T01:47:09;15.00;81.90
1948;DHT22;974;52.400;9.818;2023-06-14T01:49:35;15.00;82.10
1948;DHT22;974;52.400;9.818;2023-06-14T01:52:01;15.00;82.50
1948;DHT22;974;52.400;9.818;2023-06-14T01:54:26;14.90;82.80
1948;DHT22;974;52.400;9.818;2023-06-14T01:56:52;14.90;83.20
1948;DHT22;974;52.400;9.818;2023-06-14T01:59:18;14.80;83.50
1948;DHT22;974;52.400;9.818;2023-06-14T02:01:44;14.80;84.20
1948;DHT22;974;52.400;9.818;2023-06-14T02:04:11;14.70;84.20
1948;DHT22;974;52.400;9.818;2023-06-14T02:06:37;14.70;84.50
1948;DHT22;974;52.400;9.818;2023-06-14T02:09:02;14.70;84.70
1948;DHT22;974;52.400;9.818;2023-06-14T02:11:28;14.70;85.00
1948;DHT22;974;52.400;9.818;2023-06-14T02:13:54;14.60;85.10
1948;DHT22;974;52.400;9.818;2023-06-14T02:16:20;14.60;85.60
1948;DHT22;974;52.400;9.818;2023-06-14T02:18:45;14.60;86.10
1948;DHT22;974;52.400;9.818;2023-06-14T02:21:11;14.50;86.30
1948;DHT22;974;52.400;9.818;2023-06-14T02:23:36;14.50;86.70
1948;DHT22;974;52.400;9.818;2023-06-14T02:26:02;14.50;87.10
1948;DHT22;974;52.400;9.818;2023-06-14T02:28:28;14.30;87.60
1948;DHT22;974;52.400;9.818;2023-06-14T02:30:53;14.30;88.20
1948;DHT22;974;52.400;9.818;2023-06-14T02:33:19;14.30;88.40
1948;DHT22;974;52.400;9.818;2023-06-14T02:35:45;14.30;88.90
1948;DHT22;974;52.400;9.818;2023-06-14T02:38:11;14.30;89.10
1948;DHT22;974;52.400;9.818;2023-06-14T02:40:37;14.30;89.80
1948;DHT22;974;52.400;9.818;2023-06-14T02:43:02;14.20;90.00
1948;DHT22;974;52.400;9.818;2023-06-14T02:45:28;14.20;90.20
1948;DHT22;974;52.400;9.818;2023-06-14T02:47:53;14.20;90.40
1948;DHT22;974;52.400;9.818;2023-06-14T02:50:20;14.10;90.50
1948;DHT22;974;52.400;9.818;2023-06-14T02:52:46;14.00;90.70
1948;DHT22;974;52.400;9.818;2023-06-14T02:55:12;14.00;91.00
1948;DHT22;974;52.400;9.818;2023-06-14T02:57:38;14.00;91.10
1948;DHT22;974;52.400;9.818;2023-06-14T03:00:04;14.00;91.40
1948;DHT22;974;52.400;9.818;2023-06-14T03:02:30;14.00;91.40
1948;DHT22;974;52.400;9.818;2023-06-14T03:04:55;13.90;91.60
1948;DHT22;974;52.400;9.818;2023-06-14T03:07:27;13.90;91.80
1948;DHT22;974;52.400;9.818;2023-06-14T03:09:53;13.90;91.90
1948;DHT22;974;52.400;9.818;2023-06-14T03:12:18;13.90;92.00
1948;DHT22;974;52.400;9.818;2023-06-14T03:14:44;13.90;92.10
1948;DHT22;974;52.400;9.818;2023-06-14T03:17:11;13.90;92.30
1948;DHT22;974;52.400;9.818;2023-06-14T03:19:36;13.90;92.50
1948;DHT22;974;52.400;9.818;2023-06-14T03:22:01;13.90;92.70
1948;DHT22;974;52.400;9.818;2023-06-14T03:24:27;13.80;92.80
1948;DHT22;974;52.400;9.818;2023-06-14T03:26:54;13.80;93.10
1948;DHT22;974;52.400;9.818;2023-06-14T03:29:19;13.70;93.30
1948;DHT22;974;52.400;9.818;2023-06-14T03:31:59;13.70;93.40
1948;DHT22;974;52.400;9.818;2023-06-14T03:34:25;13.70;93.70
1948;DHT22;974;52.400;9.818;2023-06-14T03:36:50;13.70;93.90
1948;DHT22;974;52.400;9.818;2023-06-14T03:39:16;13.60;94.10
1948;DHT22;974;52.400;9.818;2023-06-14T03:41:41;13.60;94.50
1948;DHT22;974;52.400;9.818;2023-06-14T03:44:07;13.60;94.70
1948;DHT22;974;52.400;9.818;2023-06-14T03:46:32;13.60;95.20
1948;DHT22;974;52.400;9.818;2023-06-14T03:48:58;13.60;95.30
1948;DHT22;974;52.400;9.818;2023-06-14T03:51:23;13.60;95.50
1948;DHT22;974;52.400;9.818;2023-06-14T03:53:50;13.60;95.80
1948;DHT22;974;52.400;9.818;2023-06-14T03:56:16;13.60;96.00
1948;DHT22;974;52.400;9.818;2023-06-14T03:58:41;13.70;96.20
1948;DHT22;974;52.400;9.818;2023-06-14T04:01:07;13.70;96.30
1948;DHT22;974;52.400;9.818;2023-06-14T04:03:32;13.80;96.60
1948;DHT22;974;52.400;9.818;2023-06-14T04:05:58;13.80;96.80
1948;DHT22;974;52.400;9.818;2023-06-14T04:08:25;13.80;96.90
1948;DHT22;974;52.400;9.818;2023-06-14T04:10:50;13.80;97.00
1948;DHT22;974;52.400;9.818;2023-06-14T04:13:16;13.80;97.00
1948;DHT22;974;52.400;9.818;2023-06-14T04:15:42;13.80;97.10
1948;DHT22;974;52.400;9.818;2023-06-14T04:18:09;13.80;97.20
1948;DHT22;974;52.400;9.818;2023-06-14T04:20:34;13.80;97.10
1948;DHT22;974;52.400;9.818;2023-06-14T04:23:11;13.90;97.30
1948;DHT22;974;52.400;9.818;2023-06-14T04:25:38;13.90;97.30
1948;DHT22;974;52.400;9.818;2023-06-14T04:28:03;13.90;97.30
1948;DHT22;974;52.400;9.818;2023-06-14T04:30:29;13.90;97.50
1948;DHT22;974;52.400;9.818;2023-06-14T04:32:57;14.00;97.30
1948;DHT22;974;52.400;9.818;2023-06-14T04:35:22;14.00;97.60
1948;DHT22;974;52.400;9.818;2023-06-14T04:37:52;13.90;97.40
1948;DHT22;974;52.400;9.818;2023-06-14T04:40:19;14.00;97.60
1948;DHT22;974;52.400;9.818;2023-06-14T04:42:44;14.00;97.70
1948;DHT22;974;52.400;9.818;2023-06-14T04:45:11;14.10;97.70
1948;DHT22;974;52.400;9.818;2023-06-14T04:47:38;14.10;97.70
1948;DHT22;974;52.400;9.818;2023-06-14T04:50:04;14.20;97.70
1948;DHT22;974;52.400;9.818;2023-06-14T04:52:29;14.20;97.80
1948;DHT22;974;52.400;9.818;2023-06-14T04:54:55;14.30;97.70
1948;DHT22;974;52.400;9.818;2023-06-14T04:57:21;14.30;97.80
1948;DHT22;974;52.400;9.818;2023-06-14T04:59:48;14.30;97.80
1948;DHT22;974;52.400;9.818;2023-06-14T05:02:13;14.40;97.70
1948;DHT22;974;52.400;9.818;2023-06-14T05:04:39;14.40;97.70
1948;DHT22;974;52.400;9.818;2023-06-14T05:07:07;14.40;97.80
1948;DHT22;974;52.400;9.818;2023-06-14T05:09:33;14.40;97.90
1948;DHT22;974;52.400;9.818;2023-06-14T05:11:59;14.40;98.00
1948;DHT22;974;52.400;9.818;2023-06-14T05:14:25;14.50;98.10
1948;DHT22;974;52.400;9.818;2023-06-14T05:16:51;14.50;98.10
1948;DHT22;974;52.400;9.818;2023-06-14T05:19:17;14.50;98.20
1948;DHT22;974;52.400;9.818;2023-06-14T05:21:43;14.60;98.10
1948;DHT22;974;52.400;9.818;2023-06-14T05:24:09;14.60;98.00
1948;DHT22;974;52.400;9.818;2023-06-14T05:26:35;14.70;98.30
1948;DHT22;974;52.400;9.818;2023-06-14T05:29:00;14.70;98.10
1948;DHT22;974;52.400;9.818;2023-06-14T05:31:27;14.70;98.10
1948;DHT22;974;52.400;9.818;2023-06-14T05:33:53;14.80;98.20
1948;DHT22;974;52.400;9.818;2023-06-14T05:36:19;14.90;97.90
1948;DHT22;974;52.400;9.818;2023-06-14T05:38:46;14.90;98.00
1948;DHT22;974;52.400;9.818;2023-06-14T05:41:12;14.90;98.10
1948;DHT22;974;52.400;9.818;2023-06-14T05:43:37;14.90;98.00
1948;DHT22;974;52.400;9.818;2023-06-14T05:46:03;15.00;98.30
1948;DHT22;974;52.400;9.818;2023-06-14T05:48:30;15.00;98.20
1948;DHT22;974;52.400;9.818;2023-06-14T05:50:55;15.10;98.40
1948;DHT22;974;52.400;9.818;2023-06-14T05:53:21;15.20;98.10
1948;DHT22;974;52.400;9.818;2023-06-14T05:55:46;15.20;98.30
1948;DHT22;974;52.400;9.818;2023-06-14T05:58:12;15.20;98.40
1948;DHT22;974;52.400;9.818;2023-06-14T06:00:39;15.30;98.50
1948;DHT22;974;52.400;9.818;2023-06-14T06:03:04;15.30;98.40
1948;DHT22;974;52.400;9.818;2023-06-14T06:05:30;15.40;98.60
1948;DHT22;974;52.400;9.818;2023-06-14T06:07:55;15.40;98.40
1948;DHT22;974;52.400;9.818;2023-06-14T06:10:21;15.50;98.80
1948;DHT22;974;52.400;9.818;2023-06-14T06:12:47;15.60;99.10
1948;DHT22;974;52.400;9.818;2023-06-14T06:15:14;15.50;98.60
1948;DHT22;974;52.400;9.818;2023-06-14T06:17:40;15.60;98.40
1948;DHT22;974;52.400;9.818;2023-06-14T06:20:06;15.60;98.30
1948;DHT22;974;52.400;9.818;2023-06-14T06:22:33;15.70;98.50
1948;DHT22;974;52.400;9.818;2023-06-14T06:24:59;15.80;98.80
1948;DHT22;974;52.400;9.818;2023-06-14T06:27:24;15.80;98.40
1948;DHT22;974;52.400;9.818;2023-06-14T06:29:50;15.80;98.40
1948;DHT22;974;52.400;9.818;2023-06-14T06:32:17;15.90;98.70
1948;DHT22;974;52.400;9.818;2023-06-14T06:34:43;15.90;98.40
1948;DHT22;974;52.400;9.818;2023-06-14T06:37:08;16.00;98.60
1948;DHT22;974;52.400;9.818;2023-06-14T06:39:34;16.10;98.40
1948;DHT22;974;52.400;9.818;2023-06-14T06:42:00;16.00;97.70
1948;DHT22;974;52.400;9.818;2023-06-14T06:44:25;16.10;98.00
1948;DHT22;974;52.400;9.818;2023-06-14T06:46:51;16.20;97.70
1948;DHT22;974;52.400;9.818;2023-06-14T06:49:16;16.20;97.50
1948;DHT22;974;52.400;9.818;2023-06-14T06:51:42;16.20;97.60
1948;DHT22;974;52.400;9.818;2023-06-14T06:54:08;16.30;97.50
1948;DHT22;974;52.400;9.818;2023-06-14T06:56:35;16.30;97.20
1948;DHT22;974;52.400;9.818;2023-06-14T06:59:00;16.40;97.40
1948;DHT22;974;52.400;9.818;2023-06-14T07:01:26;16.50;97.20
1948;DHT22;974;52.400;9.818;2023-06-14T07:03:54;16.60;97.40
1948;DHT22;974;52.400;9.818;2023-06-14T07:06:20;16.60;96.60
1948;DHT22;974;52.400;9.818;2023-06-14T07:08:45;16.70;96.30
1948;DHT22;974;52.400;9.818;2023-06-14T07:11:13;16.70;96.10
1948;DHT22;974;52.400;9.818;2023-06-14T07:13:39;16.70;96.00
1948;DHT22;974;52.400;9.818;2023-06-14T07:16:05;16.80;96.20
1948;DHT22;974;52.400;9.818;2023-06-14T07:18:31;16.80;96.10
1948;DHT22;974;52.400;9.818;2023-06-14T07:20:56;16.90;95.80
1948;DHT22;974;52.400;9.818;2023-06-14T07:23:22;16.90;95.50
1948;DHT22;974;52.400;9.818;2023-06-14T07:25:48;17.00;95.80
1948;DHT22;974;52.400;9.818;2023-06-14T07:28:14;17.10;95.40
1948;DHT22;974;52.400;9.818;2023-06-14T07:30:39;17.10;94.70
1948;DHT22;974;52.400;9.818;2023-06-14T07:33:05;17.20;94.30
1948;DHT22;974;52.400;9.818;2023-06-14T07:35:31;17.30;94.50
1948;DHT22;974;52.400;9.818;2023-06-14T07:37:56;17.40;94.30
1948;DHT22;974;52.400;9.818;2023-06-14T07:40:23;17.40;94.00
1948;DHT22;974;52.400;9.818;2023-06-14T07:42:48;17.40;93.90
1948;DHT22;974;52.400;9.818;2023-06-14T07:45:16;17.60;94.40
1948;DHT22;974;52.400;9.818;2023-06-14T07:47:41;17.70;94.00
1948;DHT22;974;52.400;9.818;2023-06-14T07:50:07;17.70;93.80
1948;DHT22;974;52.400;9.818;2023-06-14T07:52:33;17.70;93.30
1948;DHT22;974;52.400;9.818;2023-06-14T07:54:58;17.70;93.40
1948;DHT22;974;52.400;9.818;2023-06-14T07:57:24;17.80;93.40
1948;DHT22;974;52.400;9.818;2023-06-14T07:59:49;17.80;93.50
1948;DHT22;974;52.400;9.818;2023-06-14T08:02:15;17.90;93.20
1948;DHT22;974;52.400;9.818;2023-06-14T08:04:41;18.00;93.50
1948;DHT22;974;52.400;9.818;2023-06-14T08:07:07;18.00;93.50
1948;DHT22;974;52.400;9.818;2023-06-14T08:09:33;18.10;93.20
1948;DHT22;974;52.400;9.818;2023-06-14T08:11:58;18.20;93.90
1948;DHT22;974;52.400;9.818;2023-06-14T08:14:24;18.30;93.20
1948;DHT22;974;52.400;9.818;2023-06-14T08:16:49;18.30;92.90
1948;DHT22;974;52.400;9.818;2023-06-14T08:19:15;18.40;93.30
1948;DHT22;974;52.400;9.818;2023-06-14T08:21:42;18.40;92.90
1948;DHT22;974;52.400;9.818;2023-06-14T08:24:10;18.50;92.40
1948;DHT22;974;52.400;9.818;2023-06-14T08:26:37;18.50;91.90
1948;DHT22;974;52.400;9.818;2023-06-14T08:29:03;18.60;92.50
1948;DHT22;974;52.400;9.818;2023-06-14T08:31:29;18.70;92.60
1948;DHT22;974;52.400;9.818;2023-06-14T08:33:54;18.80;92.90
1948;DHT22;974;52.400;9.818;2023-06-14T08:36:20;18.80;92.20
1948;DHT22;974;52.400;9.818;2023-06-14T08:38:45;18.90;92.30
1948;DHT22;974;52.400;9.818;2023-06-14T08:41:12;19.00;92.00
1948;DHT22;974;52.400;9.818;2023-06-14T08:43:43;19.10;92.20
1948;DHT22;974;52.400;9.818;2023-06-14T08:46:08;19.10;91.30
1948;DHT22;974;52.400;9.818;2023-06-14T08:48:36;19.20;91.70
1948;DHT22;974;52.400;9.818;2023-06-14T08:51:03;19.20;90.90
1948;DHT22;974;52.400;9.818;2023-06-14T08:53:31;19.20;90.70
1948;DHT22;974;52.400;9.818;2023-06-14T08:55:59;19.20;90.60
1948;DHT22;974;52.400;9.818;2023-06-14T08:58:33;19.30;90.00
1948;DHT22;974;52.400;9.818;2023-06-14T09:01:01;19.30;90.20
1948;DHT22;974;52.400;9.818;2023-06-14T09:03:27;19.40;90.20
1948;DHT22;974;52.400;9.818;2023-06-14T09:05:58;19.50;90.70
1948;DHT22;974;52.400;9.818;2023-06-14T09:08:25;19.50;89.50
1948;DHT22;974;52.400;9.818;2023-06-14T09:10:50;19.60;90.10
1948;DHT22;974;52.400;9.818;2023-06-14T09:13:17;19.70;90.10
1948;DHT22;974;52.400;9.818;2023-06-14T09:15:43;19.70;88.90
1948;DHT22;974;52.400;9.818;2023-06-14T09:18:09;19.80;88.00
1948;DHT22;974;52.400;9.818;2023-06-14T09:20:35;19.90;87.20
1948;DHT22;974;52.400;9.818;2023-06-14T09:23:00;20.00;88.10
1948;DHT22;974;52.400;9.818;2023-06-14T09:25:26;20.10;88.60
1948;DHT22;974;52.400;9.818;2023-06-14T09:27:52;20.10;89.20
1948;DHT22;974;52.400;9.818;2023-06-14T09:30:20;20.30;90.00
1948;DHT22;974;52.400;9.818;2023-06-14T09:32:45;20.40;88.20
1948;DHT22;974;52.400;9.818;2023-06-14T09:35:11;20.50;87.20
1948;DHT22;974;52.400;9.818;2023-06-14T09:37:37;20.60;86.00
1948;DHT22;974;52.400;9.818;2023-06-14T09:40:06;20.70;84.50
1948;DHT22;974;52.400;9.818;2023-06-14T09:42:32;20.70;84.40
1948;DHT22;974;52.400;9.818;2023-06-14T09:45:02;20.80;83.40
1948;DHT22;974;52.400;9.818;2023-06-14T09:47:28;20.90;85.30
1948;DHT22;974;52.400;9.818;2023-06-14T09:49:55;21.00;83.40
1948;DHT22;974;52.400;9.818;2023-06-14T09:52:21;21.00;83.00
1948;DHT22;974;52.400;9.818;2023-06-14T09:54:48;21.10;82.70
1948;DHT22;974;52.400;9.818;2023-06-14T09:57:21;21.10;82.20
1948;DHT22;974;52.400;9.818;2023-06-14T09:59:48;21.20;82.20
1948;DHT22;974;52.400;9.818;2023-06-14T10:02:26;21.20;81.80
1948;DHT22;974;52.400;9.818;2023-06-14T10:05:08;21.20;83.10
1948;DHT22;974;52.400;9.818;2023-06-14T10:07:42;21.40;83.80
1948;DHT22;974;52.400;9.818;2023-06-14T10:10:09;21.30;83.10
1948;DHT22;974;52.400;9.818;2023-06-14T10:12:35;21.40;82.80
1948;DHT22;974;52.400;9.818;2023-06-14T10:15:00;21.40;83.40
1948;DHT22;974;52.400;9.818;2023-06-14T10:17:47;21.50;82.80
1948;DHT22;974;52.400;9.818;2023-06-14T10:20:33;21.70;83.60
1948;DHT22;974;52.400;9.818;2023-06-14T10:23:10;21.90;81.90
1948;DHT22;974;52.400;9.818;2023-06-14T10:25:37;22.00;81.70
1948;DHT22;974;52.400;9.818;2023-06-14T10:28:19;22.00;81.00
1948;DHT22;974;52.400;9.818;2023-06-14T10:31:10;22.10;80.80
1948;DHT22;974;52.400;9.818;2023-06-14T10:33:49;22.30;81.20
1948;DHT22;974;52.400;9.818;2023-06-14T10:36:25;22.60;79.80
1948;DHT22;974;52.400;9.818;2023-06-14T10:41:29;23.10;80.70
1948;DHT22;974;52.400;9.818;2023-06-14T10:46:55;23.00;78.70
1948;DHT22;974;52.400;9.818;2023-06-14T10:49:43;23.20;78.50
1948;DHT22;974;52.400;9.818;2023-06-14T10:52:11;23.20;77.00
1948;DHT22;974;52.400;9.818;2023-06-14T10:57:21;23.80;77.30
1948;DHT22;974;52.400;9.818;2023-06-14T10:59:47;23.60;76.60
1948;DHT22;974;52.400;9.818;2023-06-14T11:04:49;24.00;76.00
1948;DHT22;974;52.400;9.818;2023-06-14T11:10:36;24.90;74.70
1948;DHT22;974;52.400;9.818;2023-06-14T11:13:03;24.20;73.60
1948;DHT22;974;52.400;9.818;2023-06-14T11:15:35;23.80;72.50
1948;DHT22;974;52.400;9.818;2023-06-14T11:18:02;23.60;73.50
1948;DHT22;974;52.400;9.818;2023-06-14T11:20:30;23.50;73.30
1948;DHT22;974;52.400;9.818;2023-06-14T11:22:56;23.50;73.90
1948;DHT22;974;52.400;9.818;2023-06-14T11:25:22;23.50;75.70
1948;DHT22;974;52.400;9.818;2023-06-14T11:27:49;23.70;75.20
1948;DHT22;974;52.400;9.818;2023-06-14T11:30:16;23.60;74.00
1948;DHT22;974;52.400;9.818;2023-06-14T11:32:42;23.60;73.80
1948;DHT22;974;52.400;9.818;2023-06-14T11:35:08;23.60;73.50
1948;DHT22;974;52.400;9.818;2023-06-14T11:37:36;23.70;74.80
1948;DHT22;974;52.400;9.818;2023-06-14T11:40:03;23.80;73.60
1948;DHT22;974;52.400;9.818;2023-06-14T11:42:33;23.60;73.40
1948;DHT22;974;52.400;9.818;2023-06-14T11:44:59;23.60;74.90
1948;DHT22;974;52.400;9.818;2023-06-14T11:47:30;23.60;75.40
1948;DHT22;974;52.400;9.818;2023-06-14T11:49:58;23.60;74.00
1948;DHT22;974;52.400;9.818;2023-06-14T11:52:23;23.50;74.60
1948;DHT22;974;52.400;9.818;2023-06-14T11:54:49;23.50;74.00
1948;DHT22;974;52.400;9.818;2023-06-14T11:57:15;23.50;74.70
1948;DHT22;974;52.400;9.818;2023-06-14T11:59:43;23.50;74.70
1948;DHT22;974;52.400;9.818;2023-06-14T12:02:10;23.70;74.80
1948;DHT22;974;52.400;9.818;2023-06-14T12:04:41;24.40;76.10
1948;DHT22;974;52.400;9.818;2023-06-14T12:07:10;24.60;74.20
1948;DHT22;974;52.400;9.818;2023-06-14T12:10:03;24.80;75.30
1948;DHT22;974;52.400;9.818;2023-06-14T12:12:38;25.50;74.00
1948;DHT22;974;52.400;9.818;2023-06-14T12:15:05;26.00;73.80
1948;DHT22;974;52.400;9.818;2023-06-14T12:17:32;26.50;71.10
1948;DHT22;974;52.400;9.818;2023-06-14T12:19:58;27.00;70.70
1948;DHT22;974;52.400;9.818;2023-06-14T12:22:23;27.20;68.00
1948;DHT22;974;52.400;9.818;2023-06-14T12:24:49;27.60;67.90
1948;DHT22;974;52.400;9.818;2023-06-14T12:27:15;27.80;66.70
1948;DHT22;974;52.400;9.818;2023-06-14T12:29:44;27.50;66.50
1948;DHT22;974;52.400;9.818;2023-06-14T12:32:10;27.30;66.80
1948;DHT22;974;52.400;9.818;2023-06-14T12:34:35;27.40;67.60
1948;DHT22;974;52.400;9.818;2023-06-14T12:37:01;27.00;65.60
1948;DHT22;974;52.400;9.818;2023-06-14T12:39:28;27.20;67.00
1948;DHT22;974;52.400;9.818;2023-06-14T12:41:55;27.30;65.70
1948;DHT22;974;52.400;9.818;2023-06-14T12:44:20;27.40;64.60
1948;DHT22;974;52.400;9.818;2023-06-14T12:46:46;27.40;64.90
1948;DHT22;974;52.400;9.818;2023-06-14T12:49:12;27.30;64.10
1948;DHT22;974;52.400;9.818;2023-06-14T12:51:38;27.10;64.80
1948;DHT22;974;52.400;9.818;2023-06-14T12:54:05;27.40;65.60
1948;DHT22;974;52.400;9.818;2023-06-14T12:56:30;27.50;64.80
1948;DHT22;974;52.400;9.818;2023-06-14T12:58:56;27.40;63.00
1948;DHT22;974;52.400;9.818;2023-06-14T13:01:22;27.30;63.90
1948;DHT22;974;52.400;9.818;2023-06-14T13:03:47;27.40;64.80
1948;DHT22;974;52.400;9.818;2023-06-14T13:06:13;27.30;65.00
1948;DHT22;974;52.400;9.818;2023-06-14T13:08:39;27.20;65.50
1948;DHT22;974;52.400;9.818;2023-06-14T13:11:04;27.40;64.90
1948;DHT22;974;52.400;9.818;2023-06-14T13:13:30;27.50;63.70
1948;DHT22;974;52.400;9.818;2023-06-14T13:15:55;27.50;63.00
1948;DHT22;974;52.400;9.818;2023-06-14T13:18:21;27.60;63.90
1948;DHT22;974;52.400;9.818;2023-06-14T13:20:47;27.80;64.20
1948;DHT22;974;52.400;9.818;2023-06-14T13:23:13;27.60;60.00
1948;DHT22;974;52.400;9.818;2023-06-14T13:25:39;27.50;61.60
1948;DHT22;974;52.400;9.818;2023-06-14T13:28:05;27.20;62.10
1948;DHT22;974;52.400;9.818;2023-06-14T13:30:31;27.10;62.40
1948;DHT22;974;52.400;9.818;2023-06-14T13:32:57;26.80;61.80
1948;DHT22;974;52.400;9.818;2023-06-14T13:35:24;26.70;62.40
1948;DHT22;974;52.400;9.818;2023-06-14T13:37:50;26.70;64.10
1948;DHT22;974;52.400;9.818;2023-06-14T13:40:16;26.70;63.30
1948;DHT22;974;52.400;9.818;2023-06-14T13:42:42;26.30;62.00
1948;DHT22;974;52.400;9.818;2023-06-14T13:45:09;26.10;64.00
1948;DHT22;974;52.400;9.818;2023-06-14T13:47:35;25.70;64.60
1948;DHT22;974;52.400;9.818;2023-06-14T13:50:01;25.50;65.30
1948;DHT22;974;52.400;9.818;2023-06-14T13:52:27;25.20;65.30
1948;DHT22;974;52.400;9.818;2023-06-14T13:54:53;25.00;65.10
1948;DHT22;974;52.400;9.818;2023-06-14T13:57:18;24.90;66.00
1948;DHT22;974;52.400;9.818;2023-06-14T13:59:44;24.80;66.10
1948;DHT22;974;52.400;9.818;2023-06-14T14:02:12;24.60;67.10
1948;DHT22;974;52.400;9.818;2023-06-14T14:04:39;24.40;66.70
1948;DHT22;974;52.400;9.818;2023-06-14T14:07:05;24.10;67.50
1948;DHT22;974;52.400;9.818;2023-06-14T14:09:31;24.40;67.90
1948;DHT22;974;52.400;9.818;2023-06-14T14:11:58;24.70;67.70
1948;DHT22;974;52.400;9.818;2023-06-14T14:14:23;25.00;67.40
1948;DHT22;974;52.400;9.818;2023-06-14T14:16:49;25.30;69.50
1948;DHT22;974;52.400;9.818;2023-06-14T14:19:17;25.60;68.70
1948;DHT22;974;52.400;9.818;2023-06-14T14:21:44;26.60;67.80
1948;DHT22;974;52.400;9.818;2023-06-14T14:24:10;28.10;66.10
1948;DHT22;974;52.400;9.818;2023-06-14T14:26:35;29.50;62.70
1948;DHT22;974;52.400;9.818;2023-06-14T14:29:00;29.80;60.80
1948;DHT22;974;52.400;9.818;2023-06-14T14:31:27;28.80;59.70
1948;DHT22;974;52.400;9.818;2023-06-14T14:33:53;28.40;60.20
1948;DHT22;974;52.400;9.818;2023-06-14T14:36:19;27.60;59.70
1948;DHT22;974;52.400;9.818;2023-06-14T14:38:44;26.90;59.70
1948;DHT22;974;52.400;9.818;2023-06-14T14:41:10;26.40;60.80
1948;DHT22;974;52.400;9.818;2023-06-14T14:43:36;26.00;62.50
1948;DHT22;974;52.400;9.818;2023-06-14T14:46:01;25.30;62.50
1948;DHT22;974;52.400;9.818;2023-06-14T14:48:27;25.20;63.90
1948;DHT22;974;52.400;9.818;2023-06-14T14:50:52;24.80;63.90
1948;DHT22;974;52.400;9.818;2023-06-14T14:53:18;24.60;64.50
1948;DHT22;974;52.400;9.818;2023-06-14T14:55:44;24.70;65.50
1948;DHT22;974;52.400;9.818;2023-06-14T14:58:09;24.90;66.10
1948;DHT22;974;52.400;9.818;2023-06-14T15:00:35;25.00;65.90
1948;DHT22;974;52.400;9.818;2023-06-14T15:03:00;24.70;64.90
1948;DHT22;974;52.400;9.818;2023-06-14T15:05:26;24.60;65.90
1948;DHT22;974;52.400;9.818;2023-06-14T15:07:52;24.90;65.60
1948;DHT22;974;52.400;9.818;2023-06-14T15:10:17;25.10;65.20
1948;DHT22;974;52.400;9.818;2023-06-14T15:12:43;25.10;64.90
1948;DHT22;974;52.400;9.818;2023-06-14T15:15:09;25.10;64.00
1948;DHT22;974;52.400;9.818;2023-06-14T15:17:34;25.10;63.10
1948;DHT22;974;52.400;9.818;2023-06-14T15:20:00;25.20;63.50
1948;DHT22;974;52.400;9.818;2023-06-14T15:22:25;25.20;63.20
1948;DHT22;974;52.400;9.818;2023-06-14T15:24:51;25.20;63.20
1948;DHT22;974;52.400;9.818;2023-06-14T15:27:17;25.20;63.80
1948;DHT22;974;52.400;9.818;2023-06-14T15:29:42;25.50;63.80
1948;DHT22;974;52.400;9.818;2023-06-14T15:32:09;25.80;64.20
1948;DHT22;974;52.400;9.818;2023-06-14T15:34:34;26.10;63.40
1948;DHT22;974;52.400;9.818;2023-06-14T15:37:00;26.10;61.80
1948;DHT22;974;52.400;9.818;2023-06-14T15:39:28;25.90;61.10
1948;DHT22;974;52.400;9.818;2023-06-14T15:41:55;25.60;60.20
1948;DHT22;974;52.400;9.818;2023-06-14T15:44:21;25.30;60.70
1948;DHT22;974;52.400;9.818;2023-06-14T15:46:46;25.00;60.80
1948;DHT22;974;52.400;9.818;2023-06-14T15:49:13;24.90;60.90
1948;DHT22;974;52.400;9.818;2023-06-14T15:51:39;24.60;61.40
1948;DHT22;974;52.400;9.818;2023-06-14T15:54:04;24.60;62.20
1948;DHT22;974;52.400;9.818;2023-06-14T15:56:30;24.50;63.80
1948;DHT22;974;52.400;9.818;2023-06-14T15:58:56;24.30;64.20
1948;DHT22;974;52.400;9.818;2023-06-14T16:01:26;24.20;62.70
1948;DHT22;974;52.400;9.818;2023-06-14T16:03:52;24.00;63.90
1948;DHT22;974;52.400;9.818;2023-06-14T16:06:18;23.80;64.00
1948;DHT22;974;52.400;9.818;2023-06-14T16:08:46;23.70;63.60
1948;DHT22;974;52.400;9.818;2023-06-14T16:11:12;23.70;64.50
1948;DHT22;974;52.400;9.818;2023-06-14T16:13:40;23.70;65.00
1948;DHT22;974;52.400;9.818;2023-06-14T16:16:06;23.70;65.20
1948;DHT22;974;52.400;9.818;2023-06-14T16:18:31;23.60;65.50
1948;DHT22;974;52.400;9.818;2023-06-14T16:20:57;23.60;66.60
1948;DHT22;974;52.400;9.818;2023-06-14T16:23:22;23.60;66.10
1948;DHT22;974;52.400;9.818;2023-06-14T16:25:48;23.60;66.40
1948;DHT22;974;52.400;9.818;2023-06-14T16:28:14;23.70;66.30
1948;DHT22;974;52.400;9.818;2023-06-14T16:30:39;23.60;66.90